Pagrindinis puslapis
METAR-TAF:

METAR-TAF

Oro uostai :

Medanas, Šiaurės Sumatra, Indonezija

platuma: 03-34N, ilguma: 098-41E, Aukštis: 25 m

Dabartinis oras

Ataskaita buvo paskelbta 35 minutes, ne 09:00 UTC
Vėjas 9 kt iš Šiaurės/Šiaurės Vakarų
Temperatūra 29°C
Drėgmė 84%
Slėgis 1007 hPa
Matomumas 10 km arba daugiau
Mažai debesys ne aukštis 1800 ft

METAR: WIMM 170900Z 34009KT 9999 FEW018 29/26 Q1007 NOSIG

Laikas: 16:35 (09:35 UTC)

Prognozė

Ataskaita buvo paskelbta 4 valandos ir 35 minutes, ne 05:00 UTC
Prognozė galioja nuo 17 metu 06 UTC su 18 metu 06 UTC
Vėjas 9 kt iš Šiaurės
Matomumas 10 km arba daugiau
Išsisklaidę debesys ne aukštis 1700 ft
Tapsmas
nuo 17 metu 12 UTC su 17 metu 14 UTC
Vėjas 5 kt nuo kintamojo kryptimis
Matomumas: 4000 m
rūkana

TAF: WIMM 170500Z 1706/1806 36009KT 9999 SCT017 BECMG 1712/1714 VRB05KT 4000 BR

Orai ataskaitas ir orų prognozės (METAR, TAF).

turimą stotys yra geltonos ir raudonos taškus žemėlapyje.

Perkelti pele per norėdami pamatyti stoties vardą.

Tada spustelėkite, norėdami matyti oro stebėjimo ir prognozės.

Norėdami pakeisti žemėlapį: spustelėkite ant žalios mygtukų su juodo kryžiaus žemyn,; žalią mygtuką su brūkšneliu, jei norite nutolinti; arba žalių rodyklių gretimoms žemėlapius.


METAR-TAF: